createdAt,value
2018-04-23T10:12:56.158Z,7.97
2018-04-23T10:15:24.586Z,8.10
2018-04-23T10:17:52.894Z,7.60
2018-04-23T10:20:21.791Z,7.97
2018-04-23T10:22:50.187Z,8.10
2018-04-23T10:25:18.548Z,7.55
2018-04-23T10:27:46.849Z,7.30
2018-04-23T10:30:15.172Z,7.78
2018-04-23T10:32:43.962Z,8.00
2018-04-23T10:35:12.267Z,8.93
2018-04-23T10:37:42.364Z,7.60
2018-04-23T10:40:10.715Z,8.60
2018-04-23T10:42:39.023Z,8.33
2018-04-23T10:45:07.326Z,8.70
2018-04-23T10:47:35.632Z,9.30
2018-04-23T10:50:04.181Z,8.10
2018-04-23T10:52:32.456Z,9.00
2018-04-23T10:55:00.895Z,8.25
2018-04-23T10:57:30.019Z,7.80
2018-04-23T10:59:58.356Z,8.80
2018-04-23T11:02:27.559Z,8.43
2018-04-23T11:04:55.910Z,9.47
2018-04-23T11:07:24.218Z,8.67
2018-04-23T11:09:52.556Z,7.55
2018-04-23T11:12:20.871Z,7.43
2018-04-23T11:14:50.013Z,7.93
2018-04-23T11:17:18.406Z,8.50
2018-04-23T11:19:46.698Z,7.67
2018-04-23T11:22:15.019Z,7.22
2018-04-23T11:24:43.339Z,8.83
2018-04-23T11:27:11.590Z,8.10
2018-04-23T11:29:39.892Z,7.97
2018-04-23T11:32:08.253Z,9.67
2018-04-23T11:34:36.568Z,8.60
2018-04-23T11:37:05.666Z,9.77
2018-04-23T11:39:34.334Z,8.43
2018-04-23T11:42:03.630Z,8.90
2018-04-23T11:44:32.115Z,8.97
2018-04-23T11:47:00.407Z,9.97
2018-04-23T11:49:28.678Z,8.57
2018-04-23T11:51:57.124Z,8.00
2018-04-23T11:54:25.374Z,8.37
2018-04-23T11:56:53.706Z,8.40
2018-04-23T11:59:22.103Z,9.60
2018-04-23T12:01:50.344Z,7.83
2018-04-23T12:04:18.788Z,8.50
2018-04-23T12:06:47.063Z,7.70
2018-04-23T12:09:15.357Z,9.77
2018-04-23T12:11:43.639Z,8.70
2018-04-23T12:14:11.970Z,7.77
2018-04-23T12:16:40.249Z,8.33
2018-04-23T12:19:08.555Z,8.50
2018-04-23T12:21:36.870Z,7.50
2018-04-23T12:24:05.136Z,7.63
2018-04-23T12:26:33.486Z,7.77
2018-04-23T12:29:01.777Z,7.70
2018-04-23T12:31:30.998Z,8.20
2018-04-23T12:33:59.267Z,8.33
2018-04-23T12:36:27.579Z,9.10
2018-04-23T12:38:56.984Z,8.57
2018-04-23T12:41:25.258Z,8.67
2018-04-23T12:43:53.599Z,8.53
2018-04-23T12:46:21.848Z,8.23
2018-04-23T12:48:50.171Z,8.43
2018-04-23T12:51:18.494Z,10.18
2018-04-23T12:53:46.790Z,9.90
2018-04-23T12:56:15.072Z,8.25
2018-04-23T12:58:43.346Z,9.33
2018-04-23T13:01:11.733Z,9.27
2018-04-23T13:03:40.013Z,9.90
2018-04-23T13:06:08.390Z,8.67
2018-04-23T13:08:36.661Z,7.83
2018-04-23T13:11:05.574Z,9.40
2018-04-23T13:13:34.377Z,8.37
2018-04-23T13:16:02.718Z,8.57
2018-04-23T13:18:30.979Z,8.10
2018-04-23T13:20:59.297Z,8.10
2018-04-23T13:23:27.564Z,8.40
2018-04-23T13:25:55.940Z,8.60
2018-04-23T13:28:24.340Z,9.20
2018-04-23T13:30:52.718Z,9.17
2018-04-23T13:33:21.118Z,8.82
2018-04-23T13:35:49.362Z,9.30
2018-04-23T13:38:18.621Z,9.00
2018-04-23T13:40:47.047Z,8.57
2018-04-23T13:43:15.518Z,9.00
2018-04-23T13:45:43.815Z,9.13
2018-04-23T13:48:12.136Z,9.27
2018-04-23T13:50:40.953Z,10.30
2018-04-23T13:53:09.332Z,9.23
2018-04-23T13:55:37.593Z,9.03
2018-04-23T13:58:05.875Z,9.05
2018-04-23T14:00:34.202Z,8.83
2018-04-23T14:03:02.564Z,8.57
2018-04-23T14:05:30.896Z,8.90
2018-04-23T14:07:59.202Z,9.33
2018-04-23T14:10:27.507Z,9.00
2018-04-23T14:12:55.910Z,9.30
2018-04-23T14:15:24.207Z,9.30
2018-04-23T14:17:52.485Z,9.00
2018-04-23T14:20:21.428Z,9.60
2018-04-23T14:22:49.693Z,6.70
2018-04-23T14:25:18.007Z,8.85
2018-04-23T14:27:46.263Z,9.17
2018-04-23T14:30:14.554Z,8.53
2018-04-23T14:32:42.948Z,8.70
2018-04-23T14:35:11.294Z,7.18
2018-04-23T14:37:39.709Z,7.30
2018-04-23T14:40:08.075Z,8.20
2018-04-23T14:42:36.406Z,7.13
2018-04-23T14:45:05.775Z,7.45
2018-04-23T14:47:34.227Z,5.30
2018-04-23T14:50:02.513Z,5.77
2018-04-23T14:52:30.851Z,6.00
2018-04-23T14:54:59.151Z,6.32
2018-04-23T14:57:27.466Z,6.27
2018-04-23T14:59:55.735Z,5.20
2018-04-23T15:02:24.065Z,5.53
2018-04-23T15:04:52.334Z,5.37
2018-04-23T15:07:20.718Z,5.80
2018-04-23T15:09:49.139Z,5.53
2018-04-23T15:12:17.443Z,5.72
2018-04-23T15:14:45.752Z,6.47
2018-04-23T15:17:14.035Z,6.12
2018-04-23T15:19:42.446Z,6.17
2018-04-23T15:22:10.752Z,6.68
2018-04-23T15:24:39.082Z,7.80
2018-04-23T15:27:07.380Z,6.20
2018-04-23T15:29:35.664Z,6.70
2018-04-23T15:32:03.968Z,6.57
2018-04-23T15:34:32.334Z,6.40
2018-04-23T15:37:01.300Z,6.50
2018-04-23T15:39:29.625Z,5.40
2018-04-23T15:41:58.687Z,5.53
2018-04-23T15:44:27.032Z,5.80
2018-04-23T15:46:55.345Z,5.53
2018-04-23T15:49:23.617Z,5.70
2018-04-23T15:51:51.888Z,5.43
2018-04-23T15:54:20.787Z,6.57
2018-04-23T15:56:49.999Z,6.00
2018-04-23T15:59:19.461Z,6.75
2018-04-23T16:01:47.739Z,5.97
2018-04-23T16:04:16.012Z,6.15
2018-04-23T16:06:44.357Z,5.93
2018-04-23T16:09:12.622Z,6.47
2018-04-23T16:11:40.937Z,7.30
2018-04-23T16:14:09.203Z,6.40
2018-04-23T16:16:37.499Z,7.43
2018-04-23T16:19:05.859Z,8.53
2018-04-23T16:21:34.167Z,7.90
2018-04-23T16:24:02.459Z,8.07
2018-04-23T16:26:30.752Z,7.63
2018-04-23T16:28:59.040Z,7.60
2018-04-23T16:31:27.371Z,7.13
2018-04-23T16:33:56.306Z,6.97
2018-04-23T16:36:24.602Z,7.37
2018-04-23T16:38:52.878Z,7.63
2018-04-23T16:41:21.189Z,7.90
2018-04-23T16:43:49.507Z,7.37
2018-04-23T16:46:17.758Z,8.60
2018-04-23T16:48:46.345Z,8.50
2018-04-23T16:51:14.627Z,8.18
2018-04-23T16:53:43.046Z,10.23
2018-04-23T16:56:11.286Z,7.45
2018-04-23T16:58:39.592Z,7.63
2018-04-23T17:01:07.951Z,8.30
2018-04-23T17:03:37.131Z,8.97
2018-04-23T17:06:05.406Z,8.90
2018-04-23T17:08:33.754Z,10.67
2018-04-23T17:11:02.164Z,10.20
2018-04-23T17:13:30.484Z,8.00
2018-04-23T17:15:58.864Z,7.73
2018-04-23T17:18:27.848Z,7.90
2018-04-23T17:20:56.191Z,8.60
2018-04-23T17:23:24.496Z,7.97
2018-04-23T17:25:52.782Z,7.93
2018-04-23T17:28:21.131Z,7.57
2018-04-23T17:30:49.409Z,8.77
2018-04-23T17:33:17.696Z,8.30
2018-04-23T17:35:46.004Z,7.97
2018-04-23T17:38:14.335Z,8.63
2018-04-23T17:40:42.666Z,8.60
2018-04-23T17:43:10.952Z,8.13
2018-04-23T17:45:39.255Z,7.83
2018-04-23T17:48:07.535Z,8.27
2018-04-23T17:50:35.826Z,8.10
2018-04-23T17:53:04.130Z,10.13
2018-04-23T17:55:32.447Z,8.70
2018-04-23T17:58:00.729Z,8.30
2018-04-23T18:00:29.060Z,7.90
2018-04-23T18:02:57.336Z,9.43
2018-04-23T18:05:25.691Z,8.17
2018-04-23T18:07:54.506Z,7.70
2018-04-23T18:10:22.796Z,7.27
2018-04-23T18:12:51.070Z,7.97
2018-04-23T18:15:19.390Z,7.12
2018-04-23T18:17:47.747Z,7.87
2018-04-23T18:20:16.039Z,7.70
2018-04-23T18:22:45.135Z,7.67
2018-04-23T18:25:13.772Z,6.20
2018-04-23T18:27:42.299Z,6.33
2018-04-23T18:30:10.724Z,5.67
2018-04-23T18:32:39.299Z,5.60
2018-04-23T18:35:07.594Z,5.60
2018-04-23T18:37:35.906Z,5.37
2018-04-23T18:40:05.988Z,5.70
2018-04-23T18:42:34.314Z,5.67
2018-04-23T18:45:02.663Z,4.90
2018-04-23T18:47:31.005Z,5.20
2018-04-23T18:49:59.816Z,5.57
2018-04-23T18:52:28.176Z,5.47
2018-04-23T18:54:56.466Z,5.60
2018-04-23T18:57:24.747Z,6.20
2018-04-23T18:59:53.256Z,6.00
2018-04-23T19:02:21.601Z,6.07
2018-04-23T19:04:49.852Z,5.63
2018-04-23T19:07:18.177Z,5.72
2018-04-23T19:09:46.444Z,6.23
2018-04-23T19:12:14.772Z,6.27
2018-04-23T19:14:43.095Z,5.50
2018-04-23T19:17:11.366Z,6.00
2018-04-23T19:19:39.714Z,5.20
2018-04-23T19:22:07.994Z,5.57
2018-04-23T19:24:37.359Z,5.65
2018-04-23T19:27:05.697Z,5.60
2018-04-23T19:29:34.009Z,6.07
2018-04-23T19:32:02.315Z,5.27
2018-04-23T19:34:30.623Z,6.07
2018-04-23T19:36:58.897Z,5.97
2018-04-23T19:39:27.276Z,5.65
2018-04-23T19:41:55.595Z,6.17
2018-04-23T19:44:23.865Z,5.23
2018-04-23T19:46:52.156Z,6.20
2018-04-23T19:49:20.468Z,5.30
2018-04-23T19:51:48.841Z,5.40
2018-04-23T19:54:17.091Z,5.60
2018-04-23T19:56:45.411Z,5.90
2018-04-23T19:59:13.679Z,4.60
2018-04-23T20:01:42.002Z,5.07
2018-04-23T20:04:10.306Z,5.07
2018-04-23T20:06:38.613Z,4.90
2018-04-23T20:09:06.913Z,4.80
2018-04-23T20:11:35.702Z,5.07
2018-04-23T20:14:04.047Z,4.50
2018-04-23T20:16:32.387Z,4.80
2018-04-23T20:19:00.703Z,5.10
2018-04-23T20:21:30.260Z,5.10
2018-04-23T20:23:58.558Z,4.83
2018-04-23T20:26:26.843Z,5.50
2018-04-23T20:28:55.124Z,4.90
2018-04-23T20:31:24.159Z,5.50
2018-04-23T20:33:52.548Z,5.57
2018-04-23T20:36:20.814Z,5.20
2018-04-23T20:38:49.142Z,5.00
2018-04-23T20:41:17.410Z,5.13
2018-04-23T20:43:45.679Z,5.10
2018-04-23T20:46:14.013Z,5.40
2018-04-23T20:48:42.386Z,6.00
2018-04-23T20:51:10.694Z,4.93
2018-04-23T20:53:38.975Z,5.20
2018-04-23T20:56:07.272Z,4.87
2018-04-23T20:58:35.541Z,5.50
2018-04-23T21:01:03.984Z,5.30
2018-04-23T21:03:32.502Z,5.37
2018-04-23T21:06:01.158Z,4.93
2018-04-23T21:08:29.433Z,3.90
2018-04-23T21:10:57.919Z,5.17
2018-04-23T21:13:26.162Z,4.53
2018-04-23T21:15:54.457Z,4.53
2018-04-23T21:18:22.804Z,4.50
2018-04-23T21:20:51.079Z,4.70
2018-04-23T21:23:19.384Z,4.75
2018-04-23T21:25:48.347Z,4.63
2018-04-23T21:28:16.719Z,4.18
2018-04-23T21:30:45.005Z,4.27
2018-04-23T21:33:14.866Z,5.10
2018-04-23T21:35:43.158Z,4.35
2018-04-23T21:38:11.418Z,3.70
2018-04-23T21:40:39.676Z,4.30
2018-04-23T21:43:07.996Z,4.33
2018-04-23T21:45:36.422Z,3.70
2018-04-23T21:48:04.858Z,3.93
2018-04-23T21:50:33.135Z,4.00
2018-04-23T21:53:01.422Z,4.10
2018-04-23T21:55:29.683Z,3.80
2018-04-23T21:57:58.013Z,4.17
2018-04-23T22:00:26.366Z,3.90
2018-04-23T22:02:54.658Z,3.83
2018-04-23T22:05:23.120Z,3.53
2018-04-23T22:07:51.412Z,3.87
2018-04-23T22:10:19.705Z,4.80
2018-04-23T22:12:47.966Z,5.67
2018-04-23T22:15:16.282Z,4.60
2018-04-23T22:17:44.562Z,4.30
2018-04-23T22:20:12.878Z,4.10
2018-04-23T22:22:41.160Z,5.23
2018-04-23T22:25:09.464Z,4.80
2018-04-23T22:27:37.724Z,5.17
2018-04-23T22:30:06.015Z,5.03
2018-04-23T22:32:34.324Z,5.25
2018-04-23T22:35:02.639Z,5.40
2018-04-23T22:37:30.935Z,5.63
2018-04-23T22:39:59.207Z,5.70
2018-04-23T22:42:27.548Z,5.90
2018-04-23T22:44:55.848Z,6.10
2018-04-23T22:47:24.139Z,8.73
2018-04-23T22:49:52.415Z,8.60
2018-04-23T22:52:20.730Z,8.20
2018-04-23T22:54:49.012Z,6.60
2018-04-23T22:57:17.336Z,6.55
2018-04-23T22:59:45.574Z,5.50
2018-04-23T23:02:13.898Z,5.77
2018-04-23T23:04:42.183Z,4.97
2018-04-23T23:07:10.470Z,5.00
2018-04-23T23:09:38.727Z,5.70
2018-04-23T23:12:07.039Z,5.40
2018-04-23T23:14:35.288Z,5.50
2018-04-23T23:17:03.591Z,5.50
2018-04-23T23:19:31.839Z,5.90
2018-04-23T23:22:00.122Z,5.30
2018-04-23T23:24:28.448Z,5.60
2018-04-23T23:26:56.732Z,5.80
2018-04-23T23:29:25.040Z,6.05
2018-04-23T23:31:53.355Z,6.00
2018-04-23T23:34:21.637Z,5.47
2018-04-23T23:36:49.898Z,5.40
2018-04-23T23:39:18.208Z,4.93
2018-04-23T23:41:46.528Z,5.07
2018-04-23T23:44:14.828Z,5.40
2018-04-23T23:46:43.282Z,4.93
2018-04-23T23:49:11.569Z,5.10
2018-04-23T23:51:39.830Z,5.40
2018-04-23T23:54:08.159Z,4.73
2018-04-23T23:56:36.410Z,4.90
2018-04-23T23:59:05.086Z,5.40
